createdAt,value
2017-08-17T00:02:14.452Z,7.90
2017-08-17T00:04:41.946Z,8.50
2017-08-17T00:07:09.437Z,7.90
2017-08-17T00:15:22.621Z,8.00
2017-08-17T00:17:50.095Z,7.85
2017-08-17T00:20:17.586Z,6.85
2017-08-17T00:22:45.078Z,6.97
2017-08-17T00:25:12.563Z,5.90
2017-08-17T00:27:40.043Z,5.85
2017-08-17T00:30:08.286Z,6.03
2017-08-17T00:32:35.772Z,6.00
2017-08-17T00:35:04.052Z,6.57
2017-08-17T00:37:32.298Z,6.32
2017-08-17T00:39:59.775Z,6.47
2017-08-17T00:42:27.256Z,6.00
2017-08-17T00:44:54.748Z,5.78
2017-08-17T00:47:22.226Z,5.72
2017-08-17T00:49:49.726Z,5.62
2017-08-17T00:52:17.226Z,6.28
2017-08-17T00:54:44.754Z,6.18
2017-08-17T00:57:12.254Z,6.65
2017-08-17T00:59:39.744Z,6.25
2017-08-17T01:02:08.005Z,5.95
2017-08-17T01:04:35.505Z,6.18
2017-08-17T01:07:02.992Z,5.82
2017-08-17T01:09:30.512Z,6.25
2017-08-17T01:11:58.025Z,5.93
2017-08-17T01:14:25.522Z,6.25
2017-08-17T01:16:53.022Z,6.10
2017-08-17T01:19:20.534Z,5.80
2017-08-17T01:21:48.808Z,6.40
2017-08-17T01:24:16.356Z,6.32
2017-08-17T01:26:44.620Z,6.18
2017-08-17T01:29:12.104Z,6.25
2017-08-17T01:31:39.615Z,5.57
2017-08-17T01:34:07.118Z,5.50
2017-08-17T01:36:35.394Z,6.15
2017-08-17T01:39:02.891Z,5.20
2017-08-17T01:41:30.428Z,5.62
2017-08-17T01:43:57.919Z,5.53
2017-08-17T01:46:26.135Z,6.43
2017-08-17T01:48:54.398Z,6.18
2017-08-17T01:51:21.892Z,5.87
2017-08-17T01:53:49.394Z,6.68
2017-08-17T01:56:16.880Z,6.82
2017-08-17T01:58:44.367Z,6.03
2017-08-17T02:01:11.863Z,6.00
2017-08-17T02:03:39.375Z,6.20
2017-08-17T02:06:06.852Z,7.15
2017-08-17T02:08:34.360Z,6.15
2017-08-17T02:11:01.856Z,5.57
2017-08-17T02:13:29.335Z,5.12
2017-08-17T02:15:56.827Z,6.10
2017-08-17T02:18:24.308Z,5.85
2017-08-17T02:20:52.568Z,5.45
2017-08-17T02:23:20.061Z,6.50
2017-08-17T02:25:47.551Z,6.07
2017-08-17T02:28:15.049Z,6.28
2017-08-17T02:30:42.533Z,6.70
2017-08-17T02:33:10.026Z,6.60
2017-08-17T02:35:37.547Z,6.75
2017-08-17T02:38:05.043Z,6.60
2017-08-17T02:40:32.560Z,7.20
2017-08-17T02:43:00.746Z,7.03
2017-08-17T02:45:28.239Z,6.93
2017-08-17T02:47:55.720Z,7.85
2017-08-17T02:50:23.990Z,8.38
2017-08-17T02:52:51.485Z,7.78
2017-08-17T02:55:18.980Z,9.05
2017-08-17T02:57:46.464Z,7.90
2017-08-17T03:00:13.960Z,8.20
2017-08-17T03:02:41.452Z,8.30
2017-08-17T03:05:09.178Z,10.13
2017-08-17T03:07:36.667Z,8.40
2017-08-17T03:10:04.161Z,8.40
2017-08-17T03:12:32.435Z,7.43
2017-08-17T03:15:01.274Z,8.50
2017-08-17T03:17:28.748Z,8.32
2017-08-17T03:19:56.239Z,7.70
2017-08-17T03:22:23.729Z,8.25
2017-08-17T03:24:51.229Z,8.93
2017-08-17T03:27:18.733Z,7.45
2017-08-17T03:29:46.996Z,8.23
2017-08-17T03:32:14.514Z,8.07
2017-08-17T03:34:42.007Z,7.55
2017-08-17T03:37:09.518Z,7.07
2017-08-17T03:39:37.007Z,8.23
2017-08-17T03:42:04.504Z,8.13
2017-08-17T03:44:31.987Z,8.98
2017-08-17T03:46:59.475Z,7.80
2017-08-17T03:49:26.971Z,7.62
2017-08-17T03:51:54.459Z,8.90
2017-08-17T03:54:21.963Z,8.30
2017-08-17T03:56:49.478Z,9.23
2017-08-17T03:59:16.989Z,8.60
2017-08-17T04:01:45.270Z,8.15
2017-08-17T04:04:12.773Z,10.00
2017-08-17T04:06:40.259Z,8.80
2017-08-17T04:09:07.753Z,7.90
2017-08-17T04:11:35.247Z,8.70
2017-08-17T04:14:02.736Z,8.00
2017-08-17T04:16:30.223Z,8.27
2017-08-17T04:18:57.713Z,8.30
2017-08-17T04:21:25.204Z,8.60
2017-08-17T04:23:52.716Z,10.70
2017-08-17T04:26:20.217Z,9.80
2017-08-17T04:28:47.709Z,10.90
2017-08-17T04:31:15.229Z,10.52
2017-08-17T04:33:42.728Z,9.75
2017-08-17T04:36:10.229Z,11.12
2017-08-17T04:38:37.724Z,11.00
2017-08-17T04:41:05.220Z,9.93
2017-08-17T04:43:32.706Z,9.75
2017-08-17T04:46:00.195Z,10.25
2017-08-17T04:48:27.676Z,9.85
2017-08-17T04:50:55.184Z,10.75
2017-08-17T04:53:22.656Z,8.90
2017-08-17T04:55:50.163Z,9.63
2017-08-17T04:58:35.376Z,8.70
2017-08-17T05:01:02.886Z,10.38
2017-08-17T05:03:30.368Z,8.52
2017-08-17T05:05:57.851Z,8.68
2017-08-17T05:08:25.327Z,9.70
2017-08-17T05:10:52.819Z,10.43
2017-08-17T05:13:20.316Z,10.02
2017-08-17T05:15:47.801Z,11.82
2017-08-17T05:18:15.281Z,12.27
2017-08-17T05:20:42.805Z,11.48
2017-08-17T05:23:10.308Z,12.50
2017-08-17T05:25:37.807Z,11.23
2017-08-17T05:28:05.303Z,12.30
2017-08-17T05:30:33.564Z,13.43
2017-08-17T05:33:01.087Z,14.30
2017-08-17T05:35:28.574Z,15.07
2017-08-17T05:37:56.060Z,14.75
2017-08-17T05:40:23.542Z,12.98
2017-08-17T05:42:51.051Z,14.00
2017-08-17T05:45:19.302Z,15.25
2017-08-17T05:47:46.801Z,14.30
2017-08-17T05:50:15.863Z,15.88
2017-08-17T05:52:43.361Z,15.60
2017-08-17T05:55:11.615Z,15.43
2017-08-17T05:57:39.199Z,16.37
2017-08-17T06:00:06.691Z,15.60
2017-08-17T06:02:34.201Z,16.15
2017-08-17T06:05:02.449Z,16.55
2017-08-17T06:07:29.936Z,16.62
2017-08-17T06:09:58.194Z,15.95
2017-08-17T06:12:26.457Z,16.30
2017-08-17T06:14:53.936Z,18.15
2017-08-17T06:17:21.423Z,16.40
2017-08-17T06:19:48.917Z,18.95
2017-08-17T06:22:16.409Z,15.70
2017-08-17T06:24:43.910Z,17.10
2017-08-17T06:27:11.399Z,16.45
2017-08-17T06:29:38.897Z,17.70
2017-08-17T06:32:06.387Z,17.90
2017-08-17T06:34:33.887Z,17.83
2017-08-17T06:37:02.145Z,19.62
2017-08-17T06:39:29.648Z,18.65
2017-08-17T06:41:57.139Z,17.02
2017-08-17T06:44:24.668Z,18.12
2017-08-17T06:46:52.164Z,20.52
2017-08-17T06:49:19.656Z,18.05
2017-08-17T06:51:47.918Z,16.10
2017-08-17T06:54:15.413Z,18.20
2017-08-17T06:56:42.899Z,15.03
2017-08-17T06:59:10.400Z,18.48
2017-08-17T07:01:37.887Z,20.85
2017-08-17T07:04:05.361Z,19.50
2017-08-17T07:06:32.859Z,19.50
2017-08-17T07:09:00.364Z,20.57
2017-08-17T07:11:27.852Z,19.15
2017-08-17T07:13:55.366Z,19.63
2017-08-17T07:16:22.863Z,23.10
2017-08-17T07:18:50.364Z,24.15
2017-08-17T07:21:17.860Z,21.05
2017-08-17T07:23:45.354Z,23.10
2017-08-17T07:26:12.844Z,23.00
2017-08-17T07:28:41.095Z,18.97
2017-08-17T07:31:08.589Z,22.90
2017-08-17T07:33:36.091Z,25.53
2017-08-17T07:36:03.588Z,22.77
2017-08-17T07:38:31.842Z,22.40
2017-08-17T07:40:59.334Z,21.27
2017-08-17T07:43:26.850Z,21.60
2017-08-17T07:45:54.337Z,18.87
2017-08-17T07:48:22.607Z,18.57
2017-08-17T07:50:50.092Z,21.83
2017-08-17T07:53:17.581Z,20.60
2017-08-17T07:55:45.076Z,19.77
2017-08-17T07:58:12.564Z,17.17
2017-08-17T08:00:40.061Z,17.90
2017-08-17T08:03:07.545Z,17.20
2017-08-17T08:05:35.036Z,19.07
2017-08-17T08:08:02.529Z,19.40
2017-08-17T08:10:30.015Z,18.10
2017-08-17T08:12:57.503Z,17.77
2017-08-17T08:15:24.999Z,18.80
2017-08-17T08:17:52.488Z,18.03
2017-08-17T08:20:19.993Z,17.40
2017-08-17T08:22:47.480Z,16.10
2017-08-17T08:25:14.990Z,17.80
2017-08-17T08:27:42.481Z,15.77
2017-08-17T08:30:09.970Z,16.30
2017-08-17T08:32:37.465Z,18.30
2017-08-17T08:35:04.960Z,18.97
2017-08-17T08:37:32.446Z,18.70
2017-08-17T08:39:59.926Z,17.60
2017-08-17T08:42:28.183Z,18.73
2017-08-17T08:44:55.674Z,16.00
2017-08-17T08:47:23.159Z,21.00
2017-08-17T08:49:50.685Z,17.80
2017-08-17T08:52:18.182Z,17.83
2017-08-17T08:54:45.668Z,19.23
2017-08-17T08:57:13.167Z,16.20
2017-08-17T08:59:40.658Z,16.43
2017-08-17T09:02:08.149Z,16.53
2017-08-17T09:04:35.659Z,16.27
2017-08-17T09:07:03.152Z,16.70
2017-08-17T09:09:30.647Z,16.57
2017-08-17T09:11:58.172Z,16.33
2017-08-17T09:14:25.657Z,16.67
2017-08-17T09:16:54.024Z,15.53
2017-08-17T09:19:22.277Z,16.90
2017-08-17T09:21:49.760Z,17.37
2017-08-17T09:24:17.247Z,14.83
2017-08-17T09:26:44.736Z,15.30
2017-08-17T09:29:12.227Z,15.50
2017-08-17T09:31:39.710Z,14.40
2017-08-17T09:34:07.196Z,15.73
2017-08-17T09:36:34.671Z,14.97
2017-08-17T09:39:02.151Z,13.40
2017-08-17T09:41:29.639Z,14.63
2017-08-17T09:43:57.129Z,13.17
2017-08-17T09:46:24.612Z,14.47
2017-08-17T09:48:52.140Z,13.10
2017-08-17T09:51:19.629Z,14.90
2017-08-17T09:53:47.116Z,12.37
2017-08-17T09:56:14.592Z,12.33
2017-08-17T09:58:42.080Z,11.90
2017-08-17T10:01:09.607Z,11.90
2017-08-17T10:03:37.104Z,11.43
2017-08-17T10:06:04.588Z,11.00
2017-08-17T10:08:32.060Z,10.43
2017-08-17T10:10:59.545Z,11.60
2017-08-17T10:13:27.030Z,11.43
2017-08-17T10:15:54.552Z,10.73
2017-08-17T10:18:22.043Z,11.30
2017-08-17T10:20:49.563Z,9.80
2017-08-17T10:23:17.043Z,10.17
2017-08-17T10:25:44.528Z,10.00
2017-08-17T10:28:11.999Z,9.10
2017-08-17T10:30:39.496Z,9.60
2017-08-17T10:33:06.985Z,10.70
2017-08-17T10:35:34.469Z,9.60
2017-08-17T10:38:01.961Z,11.43
2017-08-17T10:40:29.443Z,10.00
2017-08-17T10:42:56.960Z,10.20
2017-08-17T10:45:25.221Z,9.50
2017-08-17T10:47:52.748Z,10.40
2017-08-17T10:50:20.230Z,8.33
2017-08-17T10:52:47.728Z,8.90
2017-08-17T10:55:15.204Z,9.47
2017-08-17T10:57:42.707Z,8.30
2017-08-17T11:00:10.198Z,8.80
2017-08-17T11:02:37.675Z,9.43
2017-08-17T11:05:05.148Z,8.03
2017-08-17T11:07:32.635Z,9.37
2017-08-17T11:10:00.111Z,8.40
2017-08-17T11:12:28.356Z,8.90
2017-08-17T11:14:55.860Z,7.80
2017-08-17T11:17:23.399Z,7.90
2017-08-17T11:19:50.875Z,8.20
2017-08-17T11:22:18.360Z,7.83
2017-08-17T11:24:45.900Z,7.60
2017-08-17T11:27:13.380Z,7.90
2017-08-17T11:29:40.893Z,7.97
2017-08-17T11:32:09.146Z,8.57
2017-08-17T11:34:36.629Z,7.90
2017-08-17T11:37:04.103Z,8.40
2017-08-17T11:39:31.599Z,7.93
2017-08-17T11:41:59.076Z,7.40
2017-08-17T11:44:26.551Z,8.00
2017-08-17T11:46:54.023Z,8.27
2017-08-17T11:49:21.508Z,9.30
2017-08-17T11:51:48.983Z,8.77
2017-08-17T11:54:16.459Z,8.00
2017-08-17T11:56:43.933Z,8.40
2017-08-17T11:59:11.415Z,7.33
2017-08-17T12:01:38.905Z,7.20
2017-08-17T12:04:06.384Z,7.27
2017-08-17T12:06:33.872Z,7.30
2017-08-17T12:09:02.120Z,7.10
2017-08-17T12:11:29.619Z,7.40
2017-08-17T12:13:57.099Z,7.13
2017-08-17T12:16:24.573Z,7.07
2017-08-17T12:18:52.070Z,7.10
2017-08-17T12:21:20.328Z,6.63
2017-08-17T12:23:47.817Z,7.10
2017-08-17T12:26:16.096Z,6.70
2017-08-17T12:28:44.335Z,6.53
2017-08-17T12:31:11.822Z,7.30
2017-08-17T12:33:40.059Z,6.57
2017-08-17T12:36:07.532Z,5.90
2017-08-17T12:38:35.016Z,6.73
2017-08-17T12:41:02.488Z,6.73
2017-08-17T12:43:29.986Z,6.63
2017-08-17T12:45:57.455Z,6.40
2017-08-17T12:48:24.931Z,7.03
2017-08-17T12:50:52.409Z,6.73
2017-08-17T12:53:19.918Z,6.57
2017-08-17T12:55:47.392Z,6.77
2017-08-17T12:58:14.879Z,6.97
2017-08-17T13:00:42.356Z,6.50
2017-08-17T13:03:09.834Z,7.73
2017-08-17T13:05:37.311Z,5.93
2017-08-17T13:08:04.787Z,6.53
2017-08-17T13:10:32.260Z,6.37
2017-08-17T13:13:00.498Z,6.87
2017-08-17T13:15:27.972Z,6.20
2017-08-17T13:17:55.458Z,6.77
2017-08-17T13:20:22.931Z,6.90
2017-08-17T13:22:50.417Z,6.60
2017-08-17T13:25:17.892Z,6.77
2017-08-17T13:27:45.364Z,7.13
2017-08-17T13:30:13.623Z,6.73
2017-08-17T13:32:41.102Z,6.77
2017-08-17T13:35:08.600Z,6.80
2017-08-17T13:37:36.076Z,6.50
2017-08-17T13:40:03.543Z,6.43
2017-08-17T13:42:31.024Z,7.10
2017-08-17T13:44:58.506Z,6.67
2017-08-17T13:47:25.983Z,6.13
2017-08-17T13:49:53.466Z,6.97
2017-08-17T13:52:20.953Z,6.80
2017-08-17T13:54:48.460Z,5.93
2017-08-17T13:57:15.939Z,6.27
2017-08-17T13:59:43.433Z,5.60
2017-08-17T14:02:11.680Z,5.87
2017-08-17T14:04:39.161Z,5.40
2017-08-17T14:07:06.639Z,5.33
2017-08-17T14:09:34.113Z,5.30
2017-08-17T14:12:01.616Z,5.60
2017-08-17T14:14:29.102Z,5.70
2017-08-17T14:16:57.361Z,6.20
2017-08-17T14:19:24.842Z,5.90
2017-08-17T14:21:52.330Z,6.20
2017-08-17T14:24:19.815Z,5.83
2017-08-17T14:26:47.315Z,6.50
2017-08-17T14:29:14.807Z,7.10
2017-08-17T14:31:42.295Z,6.00
2017-08-17T14:34:09.779Z,6.40
2017-08-17T14:36:37.251Z,7.33
2017-08-17T14:39:04.724Z,5.97
2017-08-17T14:41:32.203Z,6.40
2017-08-17T14:43:59.688Z,6.57
2017-08-17T14:46:27.159Z,6.80
2017-08-17T14:48:55.398Z,7.03
2017-08-17T14:51:22.871Z,7.00
2017-08-17T14:53:50.373Z,6.40
2017-08-17T14:56:17.852Z,6.90
2017-08-17T14:58:45.350Z,8.23
2017-08-17T15:01:12.829Z,8.20
2017-08-17T15:03:40.308Z,7.20
2017-08-17T15:06:07.792Z,7.90
2017-08-17T15:08:35.264Z,7.80
2017-08-17T15:11:02.754Z,10.00
2017-08-17T15:13:31.024Z,8.97
2017-08-17T15:15:58.515Z,8.77
2017-08-17T15:18:26.015Z,8.60
2017-08-17T15:20:53.487Z,8.37
2017-08-17T15:23:20.967Z,8.83
2017-08-17T15:25:49.207Z,9.27
2017-08-17T15:28:16.694Z,9.37
2017-08-17T15:30:44.170Z,9.50
2017-08-17T15:33:11.671Z,8.27
2017-08-17T15:35:39.205Z,8.83
2017-08-17T15:38:06.684Z,9.80
2017-08-17T15:40:34.168Z,8.67
2017-08-17T15:43:01.647Z,10.50
2017-08-17T15:45:29.158Z,9.90
2017-08-17T15:47:56.640Z,10.27
2017-08-17T15:50:24.216Z,9.63
2017-08-17T15:52:52.467Z,10.30
2017-08-17T15:55:19.964Z,12.50
2017-08-17T15:57:47.451Z,11.40
2017-08-17T16:00:14.962Z,11.97
2017-08-17T16:02:43.258Z,9.90
2017-08-17T16:05:10.775Z,11.20
2017-08-17T16:07:38.296Z,12.87
2017-08-17T16:10:05.795Z,11.67
2017-08-17T16:12:33.283Z,12.20
2017-08-17T16:15:00.769Z,10.07
2017-08-17T16:17:28.254Z,11.80
2017-08-17T16:19:55.769Z,12.50
2017-08-17T16:22:23.257Z,12.10
2017-08-17T16:24:50.802Z,10.90
2017-08-17T16:27:18.308Z,13.57
2017-08-17T16:29:45.796Z,11.83
2017-08-17T16:32:13.281Z,11.87
2017-08-17T16:34:40.792Z,14.37
2017-08-17T16:37:08.288Z,12.63
2017-08-17T16:39:35.779Z,11.40
2017-08-17T16:42:03.272Z,12.50
2017-08-17T16:44:30.780Z,13.40
2017-08-17T16:46:58.269Z,13.00
2017-08-17T16:49:25.771Z,13.17
2017-08-17T16:51:53.251Z,13.13
2017-08-17T16:54:20.740Z,11.90
2017-08-17T16:56:48.225Z,16.43
2017-08-17T16:59:15.727Z,14.10
2017-08-17T17:01:43.279Z,15.27
2017-08-17T17:04:10.765Z,14.00
2017-08-17T17:06:38.261Z,15.50
2017-08-17T17:09:05.784Z,17.60
2017-08-17T17:11:33.264Z,14.00
2017-08-17T17:14:01.516Z,12.60
2017-08-17T17:16:29.039Z,12.40
2017-08-17T17:18:56.538Z,12.90
2017-08-17T17:21:24.048Z,11.90
2017-08-17T17:23:51.540Z,12.30
2017-08-17T17:26:19.061Z,12.00
2017-08-17T17:28:46.557Z,14.20
2017-08-17T17:31:14.086Z,12.57
2017-08-17T17:33:41.575Z,14.50
2017-08-17T17:36:09.063Z,13.57
2017-08-17T17:38:36.575Z,14.67
2017-08-17T17:41:04.071Z,16.43
2017-08-17T17:43:31.638Z,17.83
2017-08-17T17:45:59.128Z,15.43
2017-08-17T17:48:26.620Z,15.30
2017-08-17T17:50:54.139Z,16.27
2017-08-17T17:53:21.657Z,16.90
2017-08-17T17:55:49.196Z,18.70
2017-08-17T17:58:16.772Z,17.70
2017-08-17T18:00:44.269Z,19.27
2017-08-17T18:03:12.726Z,16.70
2017-08-17T18:05:40.227Z,21.00
2017-08-17T18:08:07.726Z,20.10
2017-08-17T18:10:35.237Z,20.53
2017-08-17T18:13:02.726Z,19.97
2017-08-17T18:15:30.492Z,19.90
2017-08-17T18:17:58.045Z,20.60
2017-08-17T18:20:25.611Z,21.43
2017-08-17T18:23:00.310Z,20.90
2017-08-17T18:25:27.820Z,21.97
2017-08-17T18:27:55.311Z,20.80
2017-08-17T18:30:22.904Z,24.27
2017-08-17T18:32:50.420Z,24.90
2017-08-17T18:35:17.969Z,24.63
2017-08-17T18:37:45.471Z,22.40
2017-08-17T18:40:12.979Z,21.90
2017-08-17T18:42:41.207Z,21.93
2017-08-17T18:45:08.724Z,25.80
2017-08-17T18:47:36.269Z,23.80
2017-08-17T18:50:04.683Z,24.67
2017-08-17T18:52:32.266Z,22.80
2017-08-17T18:54:59.792Z,22.43
2017-08-17T18:57:27.600Z,22.47
2017-08-17T18:59:55.909Z,21.50
2017-08-17T19:02:23.442Z,24.20
2017-08-17T19:04:51.860Z,26.07
2017-08-17T19:07:19.439Z,25.33
2017-08-17T19:09:48.858Z,25.37
2017-08-17T19:12:16.366Z,26.13
2017-08-17T19:14:44.154Z,25.60
2017-08-17T19:17:11.746Z,28.07
2017-08-17T19:19:40.197Z,27.43
2017-08-17T19:22:07.811Z,27.50
2017-08-17T19:24:36.498Z,27.87
2017-08-17T19:27:04.389Z,30.00
2017-08-17T19:29:32.529Z,31.47
2017-08-17T19:32:08.472Z,28.33
2017-08-17T19:34:40.621Z,31.23
2017-08-17T19:37:18.670Z,30.00
2017-08-17T19:39:54.163Z,30.83
2017-08-17T19:42:22.860Z,30.00
2017-08-17T19:45:02.014Z,30.70
2017-08-17T19:47:33.167Z,31.13
2017-08-17T19:50:02.215Z,32.70
2017-08-17T19:52:34.259Z,31.43
2017-08-17T19:55:04.619Z,31.43
2017-08-17T19:57:37.529Z,32.90
2017-08-17T20:00:13.578Z,33.00
2017-08-17T20:02:46.560Z,30.57
2017-08-17T20:05:15.790Z,31.67
2017-08-17T20:07:46.512Z,31.03
2017-08-17T20:10:15.654Z,32.67
2017-08-17T20:12:44.666Z,35.40
2017-08-17T20:15:19.243Z,32.40
2017-08-17T20:17:51.658Z,36.47
2017-08-17T20:20:24.639Z,34.97
2017-08-17T20:22:59.140Z,36.77
2017-08-17T20:25:30.989Z,36.03
2017-08-17T20:28:00.225Z,36.67
2017-08-17T20:30:28.983Z,36.53
2017-08-17T20:32:57.735Z,35.93
2017-08-17T20:35:32.748Z,34.53
2017-08-17T20:38:00.267Z,38.83
2017-08-17T20:40:28.475Z,37.30
2017-08-17T20:42:55.995Z,37.40
2017-08-17T20:45:23.607Z,38.00
2017-08-17T20:47:51.131Z,36.80
2017-08-17T20:50:18.652Z,39.10
2017-08-17T20:52:46.642Z,40.63
2017-08-17T20:55:14.139Z,40.33
2017-08-17T20:57:42.196Z,39.43
2017-08-17T21:00:09.884Z,40.20
2017-08-17T21:02:37.419Z,38.50
2017-08-17T21:05:04.973Z,41.30
2017-08-17T21:07:32.529Z,40.17
2017-08-17T21:10:00.327Z,40.47
2017-08-17T21:12:27.885Z,42.63
2017-08-17T21:14:55.484Z,40.57
2017-08-17T21:17:23.179Z,37.63
2017-08-17T21:19:50.690Z,39.97
2017-08-17T21:22:19.154Z,40.37
2017-08-17T21:24:47.745Z,39.37
2017-08-17T21:27:15.240Z,37.20
2017-08-17T21:29:42.747Z,40.13
2017-08-17T21:32:10.252Z,37.23
2017-08-17T21:34:37.768Z,40.57
2017-08-17T21:37:05.799Z,38.57
2017-08-17T21:39:35.484Z,39.00
2017-08-17T21:42:02.990Z,35.87
2017-08-17T21:44:30.615Z,40.30
2017-08-17T21:46:59.098Z,39.17
2017-08-17T21:49:26.652Z,35.93
2017-08-17T21:51:54.198Z,37.30
2017-08-17T21:54:21.914Z,35.67
2017-08-17T21:56:49.462Z,35.10
2017-08-17T21:59:17.969Z,35.23
2017-08-17T22:01:46.263Z,38.87
2017-08-17T22:04:14.572Z,38.13
2017-08-17T22:06:42.103Z,37.13
2017-08-17T22:09:09.600Z,36.87
2017-08-17T22:11:38.179Z,35.90
2017-08-17T22:14:06.060Z,35.17
2017-08-17T22:16:33.590Z,36.57
2017-08-17T22:19:01.086Z,35.20
2017-08-17T22:21:28.599Z,35.30
2017-08-17T22:23:56.099Z,36.33
2017-08-17T22:26:23.583Z,38.37
2017-08-17T22:28:51.072Z,34.70
2017-08-17T22:31:18.584Z,37.70
2017-08-17T22:33:46.068Z,36.57
2017-08-17T22:36:13.564Z,35.20
2017-08-17T22:38:41.058Z,36.27
2017-08-17T22:41:08.563Z,32.73
2017-08-17T22:43:36.055Z,32.63
2017-08-17T22:46:03.544Z,34.33
2017-08-17T22:48:31.797Z,34.17
2017-08-17T22:50:59.299Z,32.17
2017-08-17T22:53:26.830Z,35.27
2017-08-17T22:55:54.319Z,32.43
2017-08-17T22:58:21.804Z,32.37
2017-08-17T23:00:49.287Z,32.77
2017-08-17T23:03:16.806Z,31.20
2017-08-17T23:05:44.317Z,32.07
2017-08-17T23:08:11.804Z,31.47
2017-08-17T23:10:39.301Z,31.50
2017-08-17T23:13:06.788Z,28.10
2017-08-17T23:15:34.280Z,31.67
2017-08-17T23:18:01.778Z,33.43
2017-08-17T23:20:29.264Z,30.73
2017-08-17T23:22:56.765Z,30.30
2017-08-17T23:25:24.248Z,30.77
2017-08-17T23:27:51.737Z,32.87
2017-08-17T23:30:19.234Z,31.40
2017-08-17T23:32:46.722Z,32.77
2017-08-17T23:35:14.226Z,30.47
2017-08-17T23:37:42.475Z,30.40
2017-08-17T23:40:09.967Z,28.87
2017-08-17T23:42:37.460Z,30.70
2017-08-17T23:45:05.000Z,30.70
2017-08-17T23:47:32.509Z,30.87
2017-08-17T23:49:59.996Z,29.47
2017-08-17T23:52:28.249Z,28.83
2017-08-17T23:54:56.520Z,30.15
2017-08-17T23:57:24.025Z,28.23
2017-08-17T23:59:51.532Z,27.70
